Kalamunda, Australia
Current Conditions -  °F | °C
As of 12:30 PM on Sunday 26 Oct 2014 (Local Time) from YPPH Reporting Station
Scattered Clouds Scattered Clouds  
Wind Chill: 70°   Ceiling: Unl
Heat Index: 70°   Visibility: 6mi
Dew Point: 55°   Wind: 14mph
Humidity: 60%   Direction: 260°W
Pressure: 30.18"   Gusts: NA
Location:  31.97°S, 116.06°E
Report Text: YPPH 260430Z 26012KT 9999 SCT035 SCT055 21/13 Q1022
Loading
Personal Weather Stations






























Interactive Weather Map
Tropical Storm Tracking
New forecast layout! Learn more

10-Day Weather Forecast

Advertisements
Track Severe Weather on mobile